Time;durP1;ratioP1;P1;durP2;ratioP2;P2;SDS_P1;SDS_P2;PMS_P1;PMS_P2;Temp;Humidity;BMP_temperature;BMP_pressure;BME280_temperature;BME280_humidity;BME280_pressure;Samples;Min_cycle;Max_cycle;Signal;HPM_P1;HPM_P2
2023/07/06 00:01:46;;;;;;;16.10;4.25;;;;;;;;;;4937185;28;20039;-68
2023/07/06 00:04:14;;;;;;;22.80;5.03;;;;;;;;;;4919354;28;20537;-66
2023/07/06 00:06:39;;;;;;;20.70;4.82;;;;;;;;;;4935718;28;20116;-66
2023/07/06 00:09:05;;;;;;;19.70;4.60;;;;;;;;;;4931840;28;20054;-67
2023/07/06 00:11:35;;;;;;;17.52;4.22;;;;;;;;;;4935010;28;20046;-67
2023/07/06 00:14:01;;;;;;;18.73;4.25;;;;;;;;;;4937284;28;20183;-67
2023/07/06 00:16:26;;;;;;;21.55;4.53;;;;;;;;;;4934205;28;22527;-67
2023/07/06 00:18:52;;;;;;;18.05;4.32;;;;;;;;;;4917403;28;20045;-67
2023/07/06 00:21:17;;;;;;;22.08;5.18;;;;;;;;;;4933663;28;20030;-67
2023/07/06 00:23:43;;;;;;;19.33;4.57;;;;;;;;;;4933676;28;20042;-67
2023/07/06 00:26:11;;;;;;;18.92;4.95;;;;;;;;;;4934546;28;20031;-67
2023/07/06 00:28:37;;;;;;;20.77;4.72;;;;;;;;;;4902397;28;22309;-66
2023/07/06 00:31:10;;;;;;;20.25;3.95;;;;;;;;;;4935992;28;20058;-67
2023/07/06 00:33:36;;;;;;;24.05;5.63;;;;;;;;;;4934141;28;20596;-66
2023/07/06 00:36:03;;;;;;;18.63;4.15;;;;;;;;;;4920374;28;20066;-67
2023/07/06 00:38:28;;;;;;;18.70;4.70;;;;;;;;;;4934419;28;20046;-67
2023/07/06 00:40:57;;;;;;;17.40;3.95;;;;;;;;;;4937511;28;20054;-66
2023/07/06 00:43:27;;;;;;;18.95;4.47;;;;;;;;;;4934836;28;20169;-67
2023/07/06 00:45:55;;;;;;;20.45;4.35;;;;;;;;;;4919238;28;20035;-66
2023/07/06 00:48:34;;;;;;;18.85;4.60;;;;;;;;;;4916950;28;20108;-67
2023/07/06 00:51:02;;;;;;;13.45;3.80;;;;;;;;;;4931692;28;20043;-67
2023/07/06 00:53:29;;;;;;;17.80;4.07;;;;;;;;;;4934807;28;20129;-66
2023/07/06 00:55:57;;;;;;;20.52;4.57;;;;;;;;;;4936421;28;20591;-66
2023/07/06 00:58:27;;;;;;;21.63;5.72;;;;;;;;;;4932582;28;20595;-67
2023/07/06 01:00:55;;;;;;;22.42;6.22;;;;;;;;;;4935291;28;20062;-67
2023/07/06 01:03:21;;;;;;;19.25;7.13;;;;;;;;;;4933752;28;20403;-68
2023/07/06 01:05:48;;;;;;;27.50;6.57;;;;;;;;;;4933087;28;20049;-67
2023/07/06 01:08:16;;;;;;;24.88;6.28;;;;;;;;;;4917998;28;20081;-68
2023/07/06 01:10:43;;;;;;;15.90;4.88;;;;;;;;;;4915231;28;20122;-65
2023/07/06 01:13:09;;;;;;;24.90;5.32;;;;;;;;;;4934571;28;20395;-66
2023/07/06 01:15:37;;;;;;;21.35;4.60;;;;;;;;;;4932870;28;20069;-67
2023/07/06 01:18:09;;;;;;;22.88;5.07;;;;;;;;;;4932758;28;20569;-66
2023/07/06 01:20:44;;;;;;;21.50;4.75;;;;;;;;;;4918500;28;20043;-67
2023/07/06 01:23:18;;;;;;;28.33;4.70;;;;;;;;;;4935230;28;20089;-67
2023/07/06 01:26:02;;;;;;;20.00;4.75;;;;;;;;;;4932361;28;20038;-66
2023/07/06 01:28:40;;;;;;;19.83;4.32;;;;;;;;;;4932025;28;20050;-66
2023/07/06 01:31:15;;;;;;;17.77;4.22;;;;;;;;;;4913685;28;20086;-67
2023/07/06 01:33:47;;;;;;;18.85;4.80;;;;;;;;;;4935577;28;20142;-67
2023/07/06 01:36:24;;;;;;;20.63;4.22;;;;;;;;;;4916097;28;20502;-66
2023/07/06 01:39:09;;;;;;;22.92;4.70;;;;;;;;;;4916220;28;20031;-66
2023/07/06 01:41:34;;;;;;;17.35;4.45;;;;;;;;;;4933107;28;20519;-66
2023/07/06 01:44:00;;;;;;;27.08;4.28;;;;;;;;;;4933028;28;20057;-66
2023/07/06 01:46:25;;;;;;;18.98;4.40;;;;;;;;;;4934785;28;20171;-68
2023/07/06 01:48:50;;;;;;;24.25;4.47;;;;;;;;;;4936679;28;20049;-67
2023/07/06 01:51:20;;;;;;;22.13;4.35;;;;;;;;;;4915409;28;20043;-67
2023/07/06 01:53:52;;;;;;;19.88;4.30;;;;;;;;;;4934331;28;20035;-67
2023/07/06 01:56:21;;;;;;;18.83;4.20;;;;;;;;;;4931861;28;20122;-66
2023/07/06 01:58:56;;;;;;;18.77;4.53;;;;;;;;;;4936172;28;20047;-67
2023/07/06 02:01:24;;;;;;;18.35;4.53;;;;;;;;;;4915655;28;20058;-67
2023/07/06 02:03:55;;;;;;;26.08;4.88;;;;;;;;;;4930571;28;20051;-65
2023/07/06 02:06:22;;;;;;;28.63;4.93;;;;;;;;;;4933371;28;21157;-66
2023/07/06 02:08:49;;;;;;;22.58;4.80;;;;;;;;;;4933215;28;20675;-66
2023/07/06 02:11:14;;;;;;;18.23;4.05;;;;;;;;;;4917778;28;20034;-66
2023/07/06 02:13:40;;;;;;;21.40;4.95;;;;;;;;;;4934328;28;20455;-66
2023/07/06 02:16:09;;;;;;;20.15;5.18;;;;;;;;;;4915826;28;20101;-66
2023/07/06 02:18:35;;;;;;;22.70;4.88;;;;;;;;;;4932555;28;20039;-67
2023/07/06 02:21:01;;;;;;;17.55;4.05;;;;;;;;;;4933764;28;20243;-67
2023/07/06 02:23:27;;;;;;;20.63;4.10;;;;;;;;;;4916983;28;20062;-66
2023/07/06 02:25:55;;;;;;;22.88;4.75;;;;;;;;;;4934440;28;20043;-67
2023/07/06 02:28:23;;;;;;;17.98;4.10;;;;;;;;;;4934427;28;20054;-67
2023/07/06 02:30:49;;;;;;;14.73;4.00;;;;;;;;;;4915825;28;20039;-67
2023/07/06 02:33:16;;;;;;;17.67;3.85;;;;;;;;;;4931909;28;20074;-67
2023/07/06 02:35:42;;;;;;;14.55;3.95;;;;;;;;;;4929919;28;20031;-66
2023/07/06 02:38:07;;;;;;;16.35;3.88;;;;;;;;;;4931694;28;20074;-69
2023/07/06 02:40:35;;;;;;;16.17;4.63;;;;;;;;;;4935940;28;20162;-66
2023/07/06 02:43:01;;;;;;;17.92;4.00;;;;;;;;;;4933972;28;20492;-66
2023/07/06 02:45:26;;;;;;;20.00;4.50;;;;;;;;;;4933972;28;20062;-67
2023/07/06 02:47:51;;;;;;;23.13;4.55;;;;;;;;;;4899680;28;20097;-67
2023/07/06 02:50:20;;;;;;;15.98;3.72;;;;;;;;;;4916795;28;21007;-67
2023/07/06 02:52:45;;;;;;;15.75;4.13;;;;;;;;;;4934236;28;20066;-66
2023/07/06 02:55:13;;;;;;;17.20;4.43;;;;;;;;;;4934752;28;20065;-66
2023/07/06 02:57:39;;;;;;;19.63;4.65;;;;;;;;;;4933591;28;20159;-67
2023/07/06 03:00:16;;;;;;;20.63;4.40;;;;;;;;;;4933218;28;20067;-67
2023/07/06 03:02:45;;;;;;;17.73;4.40;;;;;;;;;;4932054;28;20724;-68
2023/07/06 03:05:11;;;;;;;17.33;3.67;;;;;;;;;;4929849;28;20037;-67
2023/07/06 03:07:41;;;;;;;15.77;4.07;;;;;;;;;;4934550;28;20148;-66
2023/07/06 03:10:08;;;;;;;13.65;3.55;;;;;;;;;;4933060;28;20039;-67
2023/07/06 03:12:36;;;;;;;11.73;3.88;;;;;;;;;;4931208;28;20047;-65
2023/07/06 03:15:02;;;;;;;11.75;3.22;;;;;;;;;;4931920;28;20799;-67
2023/07/06 03:17:28;;;;;;;14.93;3.40;;;;;;;;;;4929815;28;20609;-69
2023/07/06 03:19:53;;;;;;;11.60;3.13;;;;;;;;;;4933513;28;20039;-68
2023/07/06 03:22:18;;;;;;;12.13;3.10;;;;;;;;;;4932794;28;20039;-67
2023/07/06 03:24:47;;;;;;;13.85;3.20;;;;;;;;;;4931765;28;20125;-66
2023/07/06 03:27:12;;;;;;;12.98;3.28;;;;;;;;;;4931662;28;20061;-67
2023/07/06 03:29:37;;;;;;;10.00;3.15;;;;;;;;;;4931245;28;22205;-67
2023/07/06 03:32:06;;;;;;;13.85;3.42;;;;;;;;;;4929380;28;20032;-68
2023/07/06 03:34:32;;;;;;;11.65;3.20;;;;;;;;;;4916093;28;20662;-68
2023/07/06 03:37:04;;;;;;;15.63;3.50;;;;;;;;;;4933022;28;20117;-67
2023/07/06 03:39:32;;;;;;;13.98;3.10;;;;;;;;;;4931735;28;20043;-67
2023/07/06 03:42:01;;;;;;;9.90;2.92;;;;;;;;;;4933595;28;20060;-66
2023/07/06 03:44:26;;;;;;;12.15;2.83;;;;;;;;;;4914423;28;20071;-69
2023/07/06 03:46:51;;;;;;;17.75;3.30;;;;;;;;;;4915432;28;22293;-69
2023/07/06 03:49:18;;;;;;;19.30;3.22;;;;;;;;;;4930731;28;20142;-68
2023/07/06 03:51:46;;;;;;;14.60;3.00;;;;;;;;;;4932071;28;20050;-66
2023/07/06 03:54:11;;;;;;;9.70;3.00;;;;;;;;;;4934365;28;20039;-69
2023/07/06 03:56:37;;;;;;;11.60;2.88;;;;;;;;;;4933540;28;20042;-69
2023/07/06 03:59:02;;;;;;;12.98;2.83;;;;;;;;;;4931334;28;20051;-68
2023/07/06 04:01:29;;;;;;;12.20;2.70;;;;;;;;;;4914272;28;20150;-66
2023/07/06 04:03:55;;;;;;;10.18;2.88;;;;;;;;;;4916419;28;20158;-67
2023/07/06 04:06:24;;;;;;;9.93;3.10;;;;;;;;;;4934183;28;20035;-67
2023/07/06 04:08:50;;;;;;;9.80;2.92;;;;;;;;;;4932818;28;20523;-67
2023/07/06 04:11:15;;;;;;;9.93;3.03;;;;;;;;;;4916099;28;20047;-67
2023/07/06 04:13:43;;;;;;;11.65;3.10;;;;;;;;;;4931594;28;20052;-67
2023/07/06 04:16:16;;;;;;;10.73;2.85;;;;;;;;;;4929338;28;20031;-67
2023/07/06 04:18:44;;;;;;;8.55;2.92;;;;;;;;;;4930947;28;20049;-66
2023/07/06 04:21:10;;;;;;;8.98;2.47;;;;;;;;;;4917308;28;20555;-66
2023/07/06 04:23:35;;;;;;;14.60;2.45;;;;;;;;;;4932239;28;20484;-67
2023/07/06 04:26:05;;;;;;;12.35;2.58;;;;;;;;;;4932259;28;20042;-67
2023/07/06 04:28:30;;;;;;;11.98;2.50;;;;;;;;;;4934462;28;20046;-67
2023/07/06 04:30:58;;;;;;;13.40;2.40;;;;;;;;;;4935854;28;20460;-67
2023/07/06 04:33:23;;;;;;;14.45;2.28;;;;;;;;;;4935921;28;21277;-65
2023/07/06 04:35:52;;;;;;;13.55;2.45;;;;;;;;;;4934444;28;20042;-67
2023/07/06 04:38:18;;;;;;;6.97;1.85;;;;;;;;;;4919989;28;20753;-66
2023/07/06 04:40:43;;;;;;;12.43;2.72;;;;;;;;;;4917644;28;20038;-67
2023/07/06 04:43:10;;;;;;;9.07;2.10;;;;;;;;;;4918012;28;20077;-67
2023/07/06 04:45:36;;;;;;;12.75;2.38;;;;;;;;;;4935830;28;20573;-66
2023/07/06 04:48:07;;;;;;;9.50;2.55;;;;;;;;;;4919136;28;20039;-66
2023/07/06 04:50:37;;;;;;;10.18;2.30;;;;;;;;;;4934185;28;20444;-66
2023/07/06 04:53:03;;;;;;;8.07;2.00;;;;;;;;;;4933823;28;20047;-67
2023/07/06 04:55:29;;;;;;;7.93;2.40;;;;;;;;;;4916700;28;20039;-68
2023/07/06 04:57:56;;;;;;;7.43;2.30;;;;;;;;;;4933025;28;20041;-68
2023/07/06 05:00:29;;;;;;;9.73;2.33;;;;;;;;;;4917104;28;20159;-68
2023/07/06 05:02:58;;;;;;;10.00;2.22;;;;;;;;;;4935311;28;20035;-66
2023/07/06 05:05:25;;;;;;;7.35;2.30;;;;;;;;;;4934015;28;20049;-66
2023/07/06 05:07:51;;;;;;;11.95;2.38;;;;;;;;;;4917836;28;20054;-67
2023/07/06 05:10:17;;;;;;;9.45;2.25;;;;;;;;;;4919364;28;20066;-68
2023/07/06 05:12:42;;;;;;;8.68;2.13;;;;;;;;;;4904664;28;20042;-69
2023/07/06 05:15:11;;;;;;;8.10;2.10;;;;;;;;;;4920245;28;20042;-69
2023/07/06 05:17:39;;;;;;;6.20;2.28;;;;;;;;;;4917528;28;20042;-68
2023/07/06 05:20:06;;;;;;;10.95;2.20;;;;;;;;;;4935534;28;20043;-70
2023/07/06 05:22:32;;;;;;;7.45;2.30;;;;;;;;;;4921832;28;20113;-69
2023/07/06 05:25:00;;;;;;;7.07;2.10;;;;;;;;;;4933661;28;20043;-69
2023/07/06 05:27:25;;;;;;;11.05;2.22;;;;;;;;;;4931018;28;20031;-68
2023/07/06 05:29:50;;;;;;;6.28;2.08;;;;;;;;;;4935680;28;20121;-69
2023/07/06 05:32:16;;;;;;;5.68;2.15;;;;;;;;;;4931419;28;20031;-69
2023/07/06 05:34:41;;;;;;;8.68;2.15;;;;;;;;;;4916661;28;20035;-70
2023/07/06 05:37:07;;;;;;;9.90;1.80;;;;;;;;;;4932028;28;20504;-68
2023/07/06 05:39:32;;;;;;;12.07;2.25;;;;;;;;;;4935521;28;20810;-69
2023/07/06 05:41:57;;;;;;;7.38;2.03;;;;;;;;;;4936797;28;20101;-69
2023/07/06 05:44:25;;;;;;;12.07;2.35;;;;;;;;;;4935240;28;20038;-71
2023/07/06 05:46:50;;;;;;;14.85;2.25;;;;;;;;;;4932568;28;20122;-68
2023/07/06 05:49:15;;;;;;;6.72;1.88;;;;;;;;;;4933220;28;20583;-68
2023/07/06 05:51:41;;;;;;;8.45;2.00;;;;;;;;;;4932323;28;20043;-68
2023/07/06 05:54:06;;;;;;;9.27;1.90;;;;;;;;;;4919096;28;20070;-68
2023/07/06 05:56:32;;;;;;;6.97;1.58;;;;;;;;;;4936174;28;20074;-68
2023/07/06 05:58:59;;;;;;;10.77;1.90;;;;;;;;;;4933357;28;20039;-67
2023/07/06 06:01:25;;;;;;;9.90;2.20;;;;;;;;;;4933825;28;20039;-68
2023/07/06 06:03:51;;;;;;;8.18;2.20;;;;;;;;;;4933902;28;20038;-67
2023/07/06 06:06:17;;;;;;;15.85;2.53;;;;;;;;;;4932137;28;20126;-68
2023/07/06 06:08:42;;;;;;;23.95;3.22;;;;;;;;;;4932189;28;20089;-68
2023/07/06 06:11:08;;;;;;;8.88;2.08;;;;;;;;;;4917149;28;20035;-68
2023/07/06 06:13:33;;;;;;;8.05;1.77;;;;;;;;;;4935135;28;20046;-68
2023/07/06 06:15:58;;;;;;;7.80;1.90;;;;;;;;;;4929934;28;21997;-68
2023/07/06 06:18:27;;;;;;;8.20;1.90;;;;;;;;;;4932529;28;20799;-69
2023/07/06 06:20:52;;;;;;;7.43;1.92;;;;;;;;;;4935276;28;20179;-67
2023/07/06 06:23:20;;;;;;;9.18;1.77;;;;;;;;;;4916828;28;20046;-68
2023/07/06 06:25:49;;;;;;;7.65;1.73;;;;;;;;;;4934121;28;20039;-69
2023/07/06 06:28:16;;;;;;;8.73;1.77;;;;;;;;;;4933858;28;20746;-68
2023/07/06 06:30:41;;;;;;;8.65;1.73;;;;;;;;;;4932569;28;20438;-69
2023/07/06 06:33:07;;;;;;;8.05;1.73;;;;;;;;;;4930833;28;20042;-69
2023/07/06 06:35:33;;;;;;;9.38;1.65;;;;;;;;;;4934994;28;20062;-68
2023/07/06 06:37:59;;;;;;;7.72;1.85;;;;;;;;;;4933367;28;20035;-69
2023/07/06 06:40:29;;;;;;;3.45;1.60;;;;;;;;;;4931671;28;20043;-68
2023/07/06 06:42:54;;;;;;;6.20;1.70;;;;;;;;;;4933221;28;20543;-69
2023/07/06 06:45:21;;;;;;;6.43;1.70;;;;;;;;;;4930988;28;20035;-70
2023/07/06 06:47:46;;;;;;;6.35;1.70;;;;;;;;;;4934274;28;20565;-68
2023/07/06 06:50:14;;;;;;;8.05;1.95;;;;;;;;;;4933081;28;20038;-68
2023/07/06 06:52:42;;;;;;;5.82;1.65;;;;;;;;;;4932317;28;20228;-68
2023/07/06 06:55:08;;;;;;;5.57;1.50;;;;;;;;;;4933387;28;20027;-69
2023/07/06 06:57:34;;;;;;;8.00;1.80;;;;;;;;;;4916757;28;22487;-70
2023/07/06 07:00:01;;;;;;;9.25;1.80;;;;;;;;;;4931590;28;20039;-68
2023/07/06 07:02:27;;;;;;;10.32;2.10;;;;;;;;;;4934827;28;20753;-67
2023/07/06 07:04:58;;;;;;;13.40;2.20;;;;;;;;;;4933814;28;20046;-68
2023/07/06 07:07:23;;;;;;;5.27;2.00;;;;;;;;;;4931391;28;20506;-69
2023/07/06 07:09:50;;;;;;;9.02;1.75;;;;;;;;;;4931229;28;20054;-68
2023/07/06 07:12:18;;;;;;;8.57;1.60;;;;;;;;;;4930277;28;20027;-71
2023/07/06 07:14:43;;;;;;;6.18;1.85;;;;;;;;;;4932763;28;20035;-66
2023/07/06 07:17:10;;;;;;;8.10;1.88;;;;;;;;;;4931829;28;20046;-68
2023/07/06 07:19:35;;;;;;;8.57;1.90;;;;;;;;;;4930620;28;20035;-70
2023/07/06 07:22:01;;;;;;;10.05;2.53;;;;;;;;;;4931587;28;20032;-68
2023/07/06 07:24:29;;;;;;;5.93;1.70;;;;;;;;;;4913720;28;20791;-69
2023/07/06 07:26:55;;;;;;;9.05;1.67;;;;;;;;;;4930405;28;20126;-70
2023/07/06 07:29:23;;;;;;;7.05;2.03;;;;;;;;;;4931351;28;22297;-67
2023/07/06 07:31:49;;;;;;;6.30;1.60;;;;;;;;;;4932092;28;20078;-69
2023/07/06 07:34:15;;;;;;;7.75;2.08;;;;;;;;;;4930838;28;20636;-69
2023/07/06 07:36:40;;;;;;;4.57;1.50;;;;;;;;;;4933843;28;20054;-69
2023/07/06 07:39:05;;;;;;;7.15;2.30;;;;;;;;;;4914805;28;20035;-68
2023/07/06 07:41:31;;;;;;;7.57;1.80;;;;;;;;;;4934069;28;21544;-69
2023/07/06 07:43:58;;;;;;;8.90;1.80;;;;;;;;;;4935316;28;20035;-66
2023/07/06 07:46:24;;;;;;;5.93;1.90;;;;;;;;;;4932537;28;20049;-71
2023/07/06 07:48:49;;;;;;;6.47;1.67;;;;;;;;;;4930418;28;20044;-68
2023/07/06 07:51:17;;;;;;;6.93;1.85;;;;;;;;;;4931422;28;20067;-70
2023/07/06 07:53:44;;;;;;;5.97;1.55;;;;;;;;;;4932317;28;20085;-69
2023/07/06 07:56:10;;;;;;;8.55;2.03;;;;;;;;;;4934485;28;20046;-67
2023/07/06 07:58:36;;;;;;;5.72;1.40;;;;;;;;;;4934394;28;20051;-71
2023/07/06 08:01:05;;;;;;;6.38;1.92;;;;;;;;;;4933101;28;20565;-71
2023/07/06 08:03:30;;;;;;;7.28;1.60;;;;;;;;;;4936018;28;20039;-72
2023/07/06 08:05:58;;;;;;;5.38;1.60;;;;;;;;;;4924564;28;20154;-72
2023/07/06 08:08:25;;;;;;;9.55;1.65;;;;;;;;;;4936524;28;20047;-70
2023/07/06 08:10:53;;;;;;;7.38;1.63;;;;;;;;;;4937614;28;22315;-69
2023/07/06 08:13:21;;;;;;;7.63;1.48;;;;;;;;;;4935614;28;20039;-69
2023/07/06 08:15:48;;;;;;;7.38;1.50;;;;;;;;;;4935258;28;20043;-69
2023/07/06 08:18:14;;;;;;;9.18;1.80;;;;;;;;;;4936243;28;20138;-68
2023/07/06 08:20:40;;;;;;;6.38;1.40;;;;;;;;;;4933841;28;20049;-68
2023/07/06 08:23:06;;;;;;;5.00;1.50;;;;;;;;;;4935158;28;20975;-67
2023/07/06 08:25:38;;;;;;;5.80;1.60;;;;;;;;;;4935163;28;20579;-68
2023/07/06 08:28:07;;;;;;;9.02;1.73;;;;;;;;;;4932292;28;20050;-68
2023/07/06 08:30:33;;;;;;;5.55;1.70;;;;;;;;;;4932013;28;20475;-68
2023/07/06 08:33:02;;;;;;;6.30;1.55;;;;;;;;;;4934175;28;20035;-68
2023/07/06 08:35:30;;;;;;;8.52;1.70;;;;;;;;;;4933217;28;20043;-69
2023/07/06 08:37:56;;;;;;;8.13;1.70;;;;;;;;;;4937010;28;20063;-68
2023/07/06 08:40:24;;;;;;;7.07;1.95;;;;;;;;;;4934344;28;20054;-68
2023/07/06 08:42:49;;;;;;;8.23;1.80;;;;;;;;;;4932999;28;20038;-68
2023/07/06 08:45:16;;;;;;;12.98;2.08;;;;;;;;;;4918609;28;20027;-68
2023/07/06 08:47:48;;;;;;;5.45;1.90;;;;;;;;;;4920018;28;20795;-69
2023/07/06 08:50:16;;;;;;;27.63;3.58;;;;;;;;;;4917012;28;20031;-68
2023/07/06 08:52:42;;;;;;;7.45;2.10;;;;;;;;;;4937242;28;20704;-68
2023/07/06 08:55:13;;;;;;;7.93;2.00;;;;;;;;;;4914797;28;20143;-70
2023/07/06 08:57:38;;;;;;;11.82;2.20;;;;;;;;;;4933745;28;20035;-68
2023/07/06 09:00:19;;;;;;;6.78;2.00;;;;;;;;;;4917245;28;20050;-68
2023/07/06 09:02:45;;;;;;;9.55;1.58;;;;;;;;;;4900597;28;20043;-67
2023/07/06 09:05:13;;;;;;;9.32;2.10;;;;;;;;;;4917621;28;20059;-67
2023/07/06 09:07:42;;;;;;;6.60;1.65;;;;;;;;;;4917252;28;20047;-70
2023/07/06 09:10:11;;;;;;;5.70;2.08;;;;;;;;;;4918212;28;20102;-69
2023/07/06 09:12:39;;;;;;;8.43;2.40;;;;;;;;;;4900571;28;20041;-67
2023/07/06 09:15:08;;;;;;;8.75;2.05;;;;;;;;;;4915905;28;20070;-68
2023/07/06 09:17:34;;;;;;;5.35;1.70;;;;;;;;;;4914057;28;20027;-68
2023/07/06 09:20:01;;;;;;;8.27;2.08;;;;;;;;;;4898651;28;20461;-68
2023/07/06 09:22:27;;;;;;;12.63;2.38;;;;;;;;;;4914412;28;20035;-66
2023/07/06 09:24:52;;;;;;;21.20;2.60;;;;;;;;;;4916602;28;20035;-67
2023/07/06 09:27:19;;;;;;;10.85;2.03;;;;;;;;;;4917136;28;20070;-68
2023/07/06 09:29:55;;;;;;;6.85;1.80;;;;;;;;;;4918335;28;20047;-68
2023/07/06 09:32:21;;;;;;;7.18;1.90;;;;;;;;;;4900647;28;20039;-67
2023/07/06 09:34:50;;;;;;;7.90;2.00;;;;;;;;;;4916560;28;20499;-66
2023/07/06 09:37:17;;;;;;;5.85;2.08;;;;;;;;;;4914685;28;20041;-66
2023/07/06 09:39:57;;;;;;;6.88;1.98;;;;;;;;;;4915019;28;20043;-64
2023/07/06 09:42:23;;;;;;;12.13;2.00;;;;;;;;;;4915617;28;20059;-66
2023/07/06 09:44:50;;;;;;;8.73;2.40;;;;;;;;;;4916065;28;20315;-67
2023/07/06 09:47:16;;;;;;;12.95;2.45;;;;;;;;;;4909961;28;20296;-65
2023/07/06 09:49:48;;;;;;;10.07;2.13;;;;;;;;;;4914501;28;20057;-66
2023/07/06 09:52:15;;;;;;;9.48;2.15;;;;;;;;;;4916222;28;22241;-66
2023/07/06 09:54:43;;;;;;;13.32;2.30;;;;;;;;;;4912495;28;20122;-66
2023/07/06 09:57:10;;;;;;;16.63;2.90;;;;;;;;;;4915052;28;20210;-66
2023/07/06 09:59:37;;;;;;;14.48;2.80;;;;;;;;;;4926346;28;20607;-66
2023/07/06 10:02:41;;;;;;;7.63;2.10;;;;;;;;;;4935323;28;20043;-66
2023/07/06 10:05:27;;;;;;;13.05;2.53;;;;;;;;;;4859222;29;20101;-66
2023/07/06 10:08:00;;;;;;;6.97;2.00;;;;;;;;;;4862295;29;20581;-64
2023/07/06 10:10:43;;;;;;;9.25;2.22;;;;;;;;;;4909312;28;20662;-66
2023/07/06 10:13:35;;;;;;;13.13;2.50;;;;;;;;;;4936422;28;20038;-66
2023/07/06 10:16:03;;;;;;;9.68;2.20;;;;;;;;;;4900291;28;20038;-66
2023/07/06 10:18:32;;;;;;;7.78;2.00;;;;;;;;;;4916694;28;20042;-66
2023/07/06 10:21:13;;;;;;;10.27;2.22;;;;;;;;;;4934161;28;20038;-66
2023/07/06 10:23:38;;;;;;;;;;;;;;;;;;4932124;28;20027;-67
2023/07/06 10:26:26;;;;;;;8.50;1.93;;;;;;;;;;4935471;28;19918;-66
2023/07/06 10:28:56;;;;;;;8.40;2.10;;;;;;;;;;4917277;28;20346;-68
2023/07/06 10:31:25;;;;;;;8.77;1.95;;;;;;;;;;4932367;28;20166;-68
2023/07/06 10:34:13;;;;;;;10.18;1.92;;;;;;;;;;4934069;28;20050;-66
2023/07/06 10:36:39;;;;;;;7.72;1.80;;;;;;;;;;4914912;28;20094;-66
2023/07/06 10:39:32;;;;;;;10.02;2.53;;;;;;;;;;4933552;28;22670;-67
2023/07/06 10:41:58;;;;;;;6.60;2.10;;;;;;;;;;4909708;28;20432;-66
2023/07/06 10:44:43;;;;;;;10.20;2.75;;;;;;;;;;4933148;28;20039;-66
2023/07/06 10:47:28;;;;;;;10.65;1.77;;;;;;;;;;4909470;28;20046;-65
2023/07/06 10:50:06;;;;;;;7.22;1.75;;;;;;;;;;4927364;28;20092;-68
2023/07/06 10:52:42;;;;;;;7.40;1.58;;;;;;;;;;4921947;28;20043;-67
2023/07/06 10:55:18;;;;;;;6.22;1.75;;;;;;;;;;4928257;28;20049;-66
2023/07/06 10:57:53;;;;;;;7.93;1.95;;;;;;;;;;4922457;28;20055;-66
2023/07/06 11:00:19;;;;;;;6.95;2.00;;;;;;;;;;4908696;28;20097;-68
2023/07/06 11:02:47;;;;;;;8.15;1.65;;;;;;;;;;4929909;28;20109;-66
2023/07/06 11:05:15;;;;;;;7.55;1.80;;;;;;;;;;4930142;28;20079;-68
2023/07/06 11:07:42;;;;;;;11.32;1.73;;;;;;;;;;4935139;28;20038;-67
2023/07/06 11:10:13;;;;;;;8.00;1.92;;;;;;;;;;4931799;28;20034;-67
2023/07/06 11:12:38;;;;;;;;;;;;;;;;;;4930006;28;20562;-67
2023/07/06 11:15:12;;;;;;;10.10;1.75;;;;;;;;;;4931170;28;19918;-68
2023/07/06 11:17:47;;;;;;;9.23;1.63;;;;;;;;;;4913602;28;20046;-67
2023/07/06 11:20:17;;;;;;;9.70;1.70;;;;;;;;;;4907930;28;20170;-67
2023/07/06 11:22:44;;;;;;;9.20;1.67;;;;;;;;;;4933422;28;20035;-68
2023/07/06 11:25:11;;;;;;;4.00;1.55;;;;;;;;;;4914909;28;20043;-66
2023/07/06 11:27:37;;;;;;;7.13;1.60;;;;;;;;;;4933516;28;20054;-67
2023/07/06 11:30:09;;;;;;;6.88;1.80;;;;;;;;;;4923454;28;20195;-67
2023/07/06 11:32:36;;;;;;;7.90;1.80;;;;;;;;;;4915051;28;20073;-66
2023/07/06 11:35:09;;;;;;;7.90;2.00;;;;;;;;;;4933039;28;20540;-69
2023/07/06 11:37:41;;;;;;;7.90;1.67;;;;;;;;;;4929751;28;20209;-66
2023/07/06 11:40:19;;;;;;;12.02;2.40;;;;;;;;;;4920052;28;20035;-67
2023/07/06 11:43:13;;;;;;;12.80;3.03;;;;;;;;;;4905913;28;20125;-69
2023/07/06 11:45:39;;;;;;;12.55;2.28;;;;;;;;;;4925721;28;20106;-68
2023/07/06 11:48:17;;;;;;;8.30;1.90;;;;;;;;;;4933285;28;20073;-68
2023/07/06 11:50:42;;;;;;;10.85;2.53;;;;;;;;;;4932282;28;20582;-68
2023/07/06 11:53:29;;;;;;;9.23;2.08;;;;;;;;;;4917140;28;20046;-69
2023/07/06 11:56:04;;;;;;;7.53;2.00;;;;;;;;;;4931549;28;20039;-70
2023/07/06 11:58:54;;;;;;;9.38;1.77;;;;;;;;;;4934021;28;20531;-70
2023/07/06 12:01:31;;;;;;;7.78;1.58;;;;;;;;;;4935269;28;20180;-69
2023/07/06 12:03:57;;;;;;;11.25;1.90;;;;;;;;;;4933788;28;20039;-68
2023/07/06 12:06:23;;;;;;;8.57;1.77;;;;;;;;;;4934649;28;20081;-68
2023/07/06 12:08:48;;;;;;;13.50;1.98;;;;;;;;;;4916182;28;20050;-68
2023/07/06 12:11:22;;;;;;;14.85;2.70;;;;;;;;;;4931858;28;20039;-69
2023/07/06 12:13:53;;;;;;;10.82;1.70;;;;;;;;;;4934846;28;20529;-68
2023/07/06 12:16:20;;;;;;;10.38;1.90;;;;;;;;;;4935592;28;20575;-67
2023/07/06 12:18:52;;;;;;;14.00;2.15;;;;;;;;;;4932516;28;21169;-70
2023/07/06 12:21:29;;;;;;;9.27;1.85;;;;;;;;;;4927142;28;20215;-67
2023/07/06 12:23:59;;;;;;;15.60;2.17;;;;;;;;;;4932772;28;20039;-68
2023/07/06 12:26:24;;;;;;;11.98;1.70;;;;;;;;;;4918123;28;20058;-69
2023/07/06 12:28:50;;;;;;;9.13;1.58;;;;;;;;;;4935103;28;20507;-66
2023/07/06 12:31:16;;;;;;;9.93;1.42;;;;;;;;;;4930371;28;20492;-68
2023/07/06 12:33:42;;;;;;;13.65;1.92;;;;;;;;;;4932118;28;20569;-68
2023/07/06 12:36:09;;;;;;;11.55;2.25;;;;;;;;;;4930493;28;20035;-68
2023/07/06 12:38:35;;;;;;;7.15;1.67;;;;;;;;;;4933610;28;20035;-69
2023/07/06 12:41:11;;;;;;;9.00;1.77;;;;;;;;;;4935574;28;20034;-67
2023/07/06 12:43:36;;;;;;;14.82;2.03;;;;;;;;;;4924230;28;20249;-69
2023/07/06 12:46:03;;;;;;;8.38;1.88;;;;;;;;;;4934173;28;20480;-68
2023/07/06 12:48:33;;;;;;;12.23;1.83;;;;;;;;;;4931693;28;20209;-67
2023/07/06 12:51:09;;;;;;;7.90;1.73;;;;;;;;;;4930484;28;20671;-68
2023/07/06 12:53:35;;;;;;;10.77;1.80;;;;;;;;;;4934266;28;20082;-68
2023/07/06 12:56:06;;;;;;;8.45;1.60;;;;;;;;;;4933455;28;20043;-67
2023/07/06 12:58:34;;;;;;;11.70;1.90;;;;;;;;;;4931217;28;20828;-68
2023/07/06 13:01:08;;;;;;;5.90;1.40;;;;;;;;;;4933686;28;20362;-70
2023/07/06 13:03:59;;;;;;;15.73;2.30;;;;;;;;;;4920496;28;20045;-67
2023/07/06 13:06:27;;;;;;;10.43;1.75;;;;;;;;;;4932644;28;20463;-69
2023/07/06 13:08:57;;;;;;;8.32;1.40;;;;;;;;;;4915586;28;20044;-67
2023/07/06 13:11:22;;;;;;;7.70;1.70;;;;;;;;;;4932678;28;20632;-69
2023/07/06 13:13:50;;;;;;;10.05;1.45;;;;;;;;;;4933717;28;20704;-69
2023/07/06 13:16:17;;;;;;;10.15;2.00;;;;;;;;;;4923530;28;20084;-69
2023/07/06 13:18:43;;;;;;;8.40;1.58;;;;;;;;;;4933794;28;20543;-64
2023/07/06 13:21:12;;;;;;;7.85;1.60;;;;;;;;;;4933874;28;20041;-65
2023/07/06 13:23:38;;;;;;;9.27;1.55;;;;;;;;;;4932014;28;20496;-64
2023/07/06 13:26:03;;;;;;;9.25;1.77;;;;;;;;;;4933279;28;20050;-66
2023/07/06 13:28:28;;;;;;;12.07;2.30;;;;;;;;;;4933454;28;20046;-64
2023/07/06 13:30:56;;;;;;;12.55;1.90;;;;;;;;;;4935579;28;20062;-65
2023/07/06 13:33:21;;;;;;;9.25;1.60;;;;;;;;;;4935611;28;20046;-63
2023/07/06 13:35:47;;;;;;;9.30;1.83;;;;;;;;;;4934526;28;20416;-65
2023/07/06 13:38:13;;;;;;;7.65;1.40;;;;;;;;;;4935485;28;20047;-66
2023/07/06 13:40:39;;;;;;;8.43;1.88;;;;;;;;;;4935641;28;20091;-64
2023/07/06 13:43:06;;;;;;;5.53;1.25;;;;;;;;;;4903770;28;20050;-66
2023/07/06 13:45:36;;;;;;;8.75;1.75;;;;;;;;;;4935395;28;20903;-67
2023/07/06 13:48:02;;;;;;;10.85;1.60;;;;;;;;;;4936540;28;20148;-65
2023/07/06 13:50:28;;;;;;;7.35;1.40;;;;;;;;;;4934382;28;20035;-67
2023/07/06 13:52:54;;;;;;;10.48;1.80;;;;;;;;;;4932892;28;20038;-66
2023/07/06 13:55:27;;;;;;;7.40;1.50;;;;;;;;;;4916643;28;20038;-67
2023/07/06 13:57:52;;;;;;;10.50;1.60;;;;;;;;;;4932957;28;20046;-67
2023/07/06 14:00:19;;;;;;;6.10;1.60;;;;;;;;;;4936984;28;20488;-68
2023/07/06 14:02:47;;;;;;;8.52;1.30;;;;;;;;;;4931320;28;22455;-65
2023/07/06 14:05:13;;;;;;;8.50;1.50;;;;;;;;;;4915803;28;20816;-67
2023/07/06 14:07:39;;;;;;;9.90;1.98;;;;;;;;;;4916042;28;20038;-68
2023/07/06 14:10:08;;;;;;;11.45;1.75;;;;;;;;;;4916042;28;20583;-66
2023/07/06 14:12:33;;;;;;;9.85;1.88;;;;;;;;;;4934208;28;20907;-67
2023/07/06 14:14:59;;;;;;;5.82;1.35;;;;;;;;;;4932878;28;20039;-67
2023/07/06 14:17:26;;;;;;;8.30;1.58;;;;;;;;;;4930431;28;20131;-68
2023/07/06 14:19:52;;;;;;;13.20;1.85;;;;;;;;;;4932203;28;20806;-67
2023/07/06 14:22:17;;;;;;;9.65;1.90;;;;;;;;;;4916502;28;20051;-68
2023/07/06 14:24:43;;;;;;;7.88;1.50;;;;;;;;;;4913309;28;20046;-69
2023/07/06 14:27:10;;;;;;;6.47;1.42;;;;;;;;;;4913925;28;20035;-67
2023/07/06 14:29:36;;;;;;;6.53;1.20;;;;;;;;;;4932816;28;20043;-65
2023/07/06 14:32:01;;;;;;;6.63;1.70;;;;;;;;;;4931210;28;20082;-65
2023/07/06 14:34:26;;;;;;;8.23;1.48;;;;;;;;;;4914673;28;20602;-65
2023/07/06 14:36:52;;;;;;;8.93;2.05;;;;;;;;;;4930356;28;20649;-66
2023/07/06 14:39:17;;;;;;;6.38;1.45;;;;;;;;;;4917248;28;20053;-66
2023/07/06 14:41:43;;;;;;;6.45;1.90;;;;;;;;;;4916936;28;20038;-65
2023/07/06 14:44:09;;;;;;;8.68;1.65;;;;;;;;;;4932950;28;20105;-64
2023/07/06 14:46:35;;;;;;;9.70;2.38;;;;;;;;;;4930620;28;20035;-64